createdAt,value
2022-12-27T00:00:53.602Z,3.80
2022-12-27T00:03:20.120Z,3.82
2022-12-27T00:05:50.773Z,3.86
2022-12-27T00:08:17.146Z,3.84
2022-12-27T00:10:43.616Z,3.86
2022-12-27T00:13:11.037Z,3.86
2022-12-27T00:15:37.498Z,3.83
2022-12-27T00:18:03.963Z,3.82
2022-12-27T00:20:30.368Z,3.81
2022-12-27T00:22:59.928Z,3.76
2022-12-27T00:25:26.316Z,3.74
2022-12-27T00:27:52.905Z,3.73
2022-12-27T00:30:19.291Z,3.72
2022-12-27T00:32:47.734Z,3.76
2022-12-27T00:35:14.106Z,3.78
2022-12-27T00:37:44.549Z,3.79
2022-12-27T00:40:11.607Z,3.80
2022-12-27T00:42:40.055Z,3.81
2022-12-27T00:45:07.148Z,3.83
2022-12-27T00:47:33.513Z,3.79
2022-12-27T00:50:00.959Z,3.81
2022-12-27T00:52:27.347Z,3.82
2022-12-27T00:54:54.771Z,3.85
2022-12-27T00:57:22.206Z,3.88
2022-12-27T00:59:55.786Z,3.87
2022-12-27T01:02:22.179Z,3.87
2022-12-27T01:04:49.714Z,3.87
2022-12-27T01:07:25.359Z,3.87
2022-12-27T01:09:55.752Z,3.89
2022-12-27T01:12:30.266Z,3.90
2022-12-27T01:15:05.474Z,3.93
2022-12-27T01:17:32.007Z,3.96
2022-12-27T01:19:58.355Z,3.99
2022-12-27T01:22:24.921Z,4.01
2022-12-27T01:25:23.429Z,4.08
2022-12-27T01:27:49.797Z,4.13
2022-12-27T01:30:16.214Z,4.12
2022-12-27T01:32:51.891Z,4.12
2022-12-27T01:35:19.322Z,4.09
2022-12-27T01:37:45.695Z,4.07
2022-12-27T01:40:12.099Z,4.06
2022-12-27T01:42:53.718Z,4.06
2022-12-27T01:45:29.742Z,4.10
2022-12-27T01:48:20.230Z,4.09
2022-12-27T01:50:48.763Z,4.11
2022-12-27T01:53:24.385Z,4.14
2022-12-27T01:55:59.955Z,4.14
2022-12-27T01:58:50.222Z,4.18
2022-12-27T02:01:21.781Z,4.16
2022-12-27T02:03:52.629Z,4.18
2022-12-27T02:06:21.510Z,4.20
2022-12-27T02:09:07.172Z,4.22
2022-12-27T02:11:51.194Z,4.25
2022-12-27T02:14:28.559Z,4.23
2022-12-27T02:17:22.225Z,4.23
2022-12-27T02:19:58.502Z,4.24
2022-12-27T02:23:15.059Z,4.23
2022-12-27T02:26:38.305Z,4.25
2022-12-27T02:29:22.994Z,4.25
2022-12-27T02:32:01.065Z,4.22
2022-12-27T02:34:34.972Z,4.20
2022-12-27T02:37:13.716Z,4.16
2022-12-27T02:39:52.200Z,4.21
2022-12-27T02:42:41.418Z,4.23
2022-12-27T02:45:38.296Z,4.22
2022-12-27T02:48:34.188Z,4.23
2022-12-27T02:51:57.796Z,4.25
2022-12-27T02:55:08.833Z,4.22
2022-12-27T02:58:20.201Z,4.22
2022-12-27T03:01:11.545Z,4.23
2022-12-27T03:04:22.933Z,4.22
2022-12-27T03:07:09.279Z,4.22
2022-12-27T03:10:04.015Z,4.20
2022-12-27T03:13:31.099Z,4.18
2022-12-27T03:16:33.708Z,4.12
2022-12-27T03:19:10.392Z,4.09
2022-12-27T03:22:06.594Z,4.06
2022-12-27T03:24:56.160Z,4.05
2022-12-27T03:27:35.998Z,4.01
2022-12-27T03:30:27.911Z,3.97
2022-12-27T03:33:12.971Z,3.94
2022-12-27T03:36:18.027Z,3.91
2022-12-27T03:39:26.156Z,3.90
2022-12-27T03:42:16.769Z,3.87
2022-12-27T03:45:20.152Z,3.87
2022-12-27T03:48:00.033Z,3.87
2022-12-27T03:50:36.246Z,3.87
2022-12-27T03:53:35.381Z,3.84
2022-12-27T03:56:02.289Z,3.84
2022-12-27T03:58:35.983Z,3.86
2022-12-27T04:01:05.755Z,3.89
2022-12-27T04:03:32.426Z,3.92
2022-12-27T04:06:13.320Z,3.95
2022-12-27T04:08:58.346Z,3.98
2022-12-27T04:11:46.621Z,4.01
2022-12-27T04:14:34.782Z,3.99
2022-12-27T04:17:32.943Z,3.99
2022-12-27T04:20:18.139Z,3.95
2022-12-27T04:23:14.614Z,3.96
2022-12-27T04:26:11.942Z,3.96
2022-12-27T04:28:57.114Z,3.97
2022-12-27T04:31:42.603Z,3.97
2022-12-27T04:34:28.301Z,3.97
2022-12-27T04:36:54.839Z,3.96
2022-12-27T04:39:21.433Z,3.98
2022-12-27T04:42:06.574Z,3.93
2022-12-27T04:44:54.758Z,3.92
2022-12-27T04:47:40.947Z,3.87
2022-12-27T04:50:54.177Z,3.87
2022-12-27T04:53:49.453Z,3.84
2022-12-27T04:56:15.934Z,3.81
2022-12-27T04:59:19.696Z,3.80
2022-12-27T05:02:04.792Z,3.78
2022-12-27T05:04:38.765Z,3.79
2022-12-27T05:07:32.370Z,3.79
2022-12-27T05:10:54.761Z,3.81
2022-12-27T05:13:44.987Z,3.82
2022-12-27T05:17:02.122Z,3.82
2022-12-27T05:19:30.878Z,3.88
2022-12-27T05:22:22.195Z,3.89
2022-12-27T05:25:07.162Z,3.87
2022-12-27T05:28:45.650Z,3.85
2022-12-27T05:31:14.198Z,3.86
2022-12-27T05:33:44.710Z,3.82
2022-12-27T05:36:28.050Z,3.77
2022-12-27T05:38:55.563Z,3.78
2022-12-27T05:41:21.993Z,3.76
2022-12-27T05:44:07.534Z,3.74
2022-12-27T05:46:35.511Z,3.75
2022-12-27T05:49:09.253Z,3.77
2022-12-27T05:51:35.714Z,3.79
2022-12-27T05:54:09.408Z,3.79
2022-12-27T05:56:37.300Z,3.79
2022-12-27T05:59:05.497Z,3.79
2022-12-27T06:02:02.378Z,3.80
2022-12-27T06:04:58.816Z,3.80
2022-12-27T06:07:25.269Z,3.81
2022-12-27T06:09:51.653Z,3.81
2022-12-27T06:12:18.007Z,3.81
2022-12-27T06:15:14.199Z,3.79
2022-12-27T06:17:44.038Z,3.78
2022-12-27T06:20:19.708Z,3.76
2022-12-27T06:23:22.238Z,3.76
2022-12-27T06:26:06.738Z,3.77
2022-12-27T06:28:51.758Z,3.72
2022-12-27T06:31:19.732Z,3.72
2022-12-27T06:33:48.721Z,3.72
2022-12-27T06:36:17.767Z,3.73
2022-12-27T06:39:08.038Z,3.73
2022-12-27T06:41:46.379Z,3.73
2022-12-27T06:44:13.109Z,3.71
2022-12-27T06:46:39.483Z,3.69
2022-12-27T06:49:27.833Z,3.71
2022-12-27T06:51:59.539Z,3.70
2022-12-27T06:54:29.369Z,3.68
2022-12-27T06:57:07.247Z,3.64
2022-12-27T06:59:33.652Z,3.59
2022-12-27T07:02:01.281Z,3.59
2022-12-27T07:04:41.088Z,3.60
2022-12-27T07:07:33.867Z,3.58
2022-12-27T07:10:03.777Z,3.56
2022-12-27T07:12:37.443Z,3.51
2022-12-27T07:15:14.112Z,3.49
2022-12-27T07:17:48.703Z,3.46
2022-12-27T07:20:22.392Z,3.47
2022-12-27T07:22:51.338Z,3.48
2022-12-27T07:25:17.786Z,3.53
2022-12-27T07:27:54.695Z,3.51
2022-12-27T07:30:21.195Z,3.50
2022-12-27T07:32:47.631Z,3.51
2022-12-27T07:35:14.313Z,3.53
2022-12-27T07:37:40.776Z,3.52
2022-12-27T07:40:07.884Z,3.50
2022-12-27T07:42:35.323Z,3.50
2022-12-27T07:45:01.778Z,3.50
2022-12-27T07:47:30.250Z,3.50
2022-12-27T07:50:12.069Z,3.53
2022-12-27T07:52:38.856Z,3.52
2022-12-27T07:55:05.840Z,3.53
2022-12-27T07:57:39.405Z,3.53
2022-12-27T08:00:06.640Z,3.52
2022-12-27T08:02:39.092Z,3.51
2022-12-27T08:05:25.981Z,3.54
2022-12-27T08:08:16.270Z,3.58
2022-12-27T08:10:53.133Z,3.58
2022-12-27T08:13:19.565Z,3.58
2022-12-27T08:15:53.107Z,3.60
2022-12-27T08:18:23.714Z,3.59
2022-12-27T08:20:51.313Z,3.61
2022-12-27T08:23:22.172Z,3.60
2022-12-27T08:25:52.767Z,3.62
2022-12-27T08:28:28.209Z,3.62
2022-12-27T08:30:54.677Z,3.66
2022-12-27T08:33:43.259Z,3.70
2022-12-27T08:36:36.777Z,3.73
2022-12-27T08:39:12.135Z,3.76
2022-12-27T08:41:39.159Z,3.76
2022-12-27T08:44:21.110Z,3.79
2022-12-27T08:46:47.762Z,3.78
2022-12-27T08:49:17.285Z,3.80
2022-12-27T08:51:43.712Z,3.84
2022-12-27T08:54:10.274Z,3.87
2022-12-27T08:56:51.011Z,3.90
2022-12-27T08:59:22.593Z,3.93
2022-12-27T09:01:56.358Z,3.98
2022-12-27T09:04:46.000Z,4.01
2022-12-27T09:07:17.639Z,4.04
2022-12-27T09:09:44.077Z,4.04
2022-12-27T09:12:10.461Z,4.08
2022-12-27T09:14:36.895Z,4.12
2022-12-27T09:17:06.246Z,4.17
2022-12-27T09:19:35.313Z,4.21
2022-12-27T09:22:08.921Z,4.23
2022-12-27T09:24:54.781Z,4.28
2022-12-27T09:27:21.277Z,4.31
2022-12-27T09:29:48.698Z,4.33
2022-12-27T09:32:41.341Z,4.31
2022-12-27T09:35:08.126Z,4.33
2022-12-27T09:37:34.619Z,4.34
2022-12-27T09:40:01.042Z,4.35
2022-12-27T09:43:09.447Z,4.37
2022-12-27T09:45:48.505Z,4.39
2022-12-27T09:48:36.339Z,4.42
2022-12-27T09:51:36.086Z,4.47
2022-12-27T09:54:12.271Z,4.50
2022-12-27T09:57:09.478Z,4.55
2022-12-27T09:59:47.697Z,4.61
2022-12-27T10:02:22.224Z,4.65
2022-12-27T10:07:49.125Z,4.70
2022-12-27T10:10:24.656Z,4.68
2022-12-27T10:13:23.085Z,4.68
2022-12-27T10:16:27.680Z,4.75
2022-12-27T10:19:16.047Z,4.91
2022-12-27T10:22:18.721Z,4.96
2022-12-27T10:24:57.142Z,4.94
2022-12-27T10:27:29.604Z,5.00
2022-12-27T10:29:59.084Z,5.11
2022-12-27T10:32:29.017Z,5.24
2022-12-27T10:35:01.981Z,5.33
2022-12-27T10:37:29.429Z,5.32
2022-12-27T10:40:04.274Z,5.38
2022-12-27T10:42:41.874Z,5.43
2022-12-27T10:45:27.458Z,5.57
2022-12-27T10:47:56.184Z,5.97
2022-12-27T10:50:26.039Z,5.87
2022-12-27T10:52:58.024Z,5.71
2022-12-27T10:55:35.441Z,5.54
2022-12-27T10:58:22.749Z,5.44
2022-12-27T11:00:55.269Z,5.40
2022-12-27T11:03:23.199Z,5.39
2022-12-27T11:06:18.978Z,5.37
2022-12-27T11:08:45.427Z,5.35
2022-12-27T11:11:25.464Z,5.31
2022-12-27T11:13:53.085Z,5.32
2022-12-27T11:16:30.580Z,5.32
2022-12-27T11:18:59.582Z,5.38
2022-12-27T11:21:28.931Z,5.90
2022-12-27T11:23:58.526Z,7.49
2022-12-27T11:26:33.232Z,8.84
2022-12-27T11:29:01.522Z,9.16
2022-12-27T11:31:32.539Z,8.89
2022-12-27T11:34:03.368Z,8.86
2022-12-27T11:36:40.674Z,9.50
2022-12-27T11:39:27.663Z,9.70
2022-12-27T11:41:56.756Z,8.70
2022-12-27T11:44:33.842Z,8.65
2022-12-27T11:47:12.391Z,9.05
2022-12-27T11:50:10.329Z,8.88
2022-12-27T11:53:04.520Z,8.97
2022-12-27T11:55:36.868Z,9.04
2022-12-27T11:58:37.025Z,8.75
2022-12-27T12:01:27.737Z,8.25
2022-12-27T12:04:33.612Z,7.72
2022-12-27T12:07:21.423Z,7.42
2022-12-27T12:10:07.590Z,7.37
2022-12-27T12:12:52.121Z,7.41
2022-12-27T12:15:45.567Z,7.19
2022-12-27T12:18:42.050Z,7.01
2022-12-27T12:21:52.836Z,6.87
2022-12-27T12:24:40.805Z,6.75
2022-12-27T12:27:32.401Z,6.68
2022-12-27T12:30:11.084Z,6.66
2022-12-27T12:32:43.432Z,6.65
2022-12-27T12:35:54.290Z,6.71
2022-12-27T12:42:30.116Z,6.84
2022-12-27T12:45:05.785Z,6.88
2022-12-27T12:48:07.178Z,6.84
2022-12-27T12:50:43.328Z,6.76
2022-12-27T12:53:40.509Z,6.72
2022-12-27T12:56:47.825Z,6.67
2022-12-27T12:59:53.002Z,6.65
2022-12-27T13:02:49.307Z,6.65
2022-12-27T13:05:40.127Z,6.65
2022-12-27T13:08:44.492Z,6.64
2022-12-27T13:11:53.808Z,6.65
2022-12-27T13:14:48.224Z,6.65
2022-12-27T13:17:57.241Z,6.76
2022-12-27T13:21:02.145Z,6.73
2022-12-27T13:24:07.644Z,6.67
2022-12-27T13:27:03.010Z,6.64
2022-12-27T13:30:06.351Z,6.64
2022-12-27T13:33:01.161Z,6.63
2022-12-27T13:36:04.971Z,6.63
2022-12-27T13:39:06.369Z,6.60
2022-12-27T13:41:55.128Z,6.61
2022-12-27T13:44:50.166Z,6.59
2022-12-27T13:48:07.505Z,6.59
2022-12-27T13:50:59.751Z,6.61
2022-12-27T13:53:50.221Z,6.64
2022-12-27T13:56:57.538Z,6.68
2022-12-27T13:59:49.079Z,6.70
2022-12-27T14:02:50.545Z,6.70
2022-12-27T14:05:44.328Z,6.70
2022-12-27T14:08:46.739Z,6.70
2022-12-27T14:11:39.195Z,6.66
2022-12-27T14:14:12.257Z,6.65
2022-12-27T14:17:09.923Z,6.63
2022-12-27T14:20:07.721Z,6.62
2022-12-27T14:23:29.033Z,6.60
2022-12-27T14:26:46.506Z,6.57
2022-12-27T14:29:36.286Z,6.57
2022-12-27T14:33:02.228Z,6.53
2022-12-27T14:35:46.510Z,6.51
2022-12-27T14:39:05.927Z,6.50
2022-12-27T14:42:18.313Z,6.48
2022-12-27T14:45:27.476Z,6.48
2022-12-27T14:48:18.166Z,6.48
2022-12-27T14:51:58.914Z,6.46
2022-12-27T14:54:46.850Z,6.46
2022-12-27T14:57:52.613Z,6.45
2022-12-27T15:00:20.168Z,6.45
2022-12-27T15:02:56.584Z,6.42
2022-12-27T15:06:05.962Z,6.40
2022-12-27T15:08:47.937Z,6.40
2022-12-27T15:11:21.481Z,6.38
2022-12-27T15:14:17.421Z,6.37
2022-12-27T15:21:01.267Z,6.33
2022-12-27T15:24:05.362Z,6.27
2022-12-27T15:26:46.321Z,6.23
2022-12-27T15:29:26.502Z,6.23
2022-12-27T15:32:24.870Z,6.25
2022-12-27T15:35:10.284Z,6.26
2022-12-27T15:37:53.510Z,6.27
2022-12-27T15:40:34.930Z,6.23
2022-12-27T15:43:40.075Z,6.19
2022-12-27T15:46:15.064Z,6.17
2022-12-27T15:49:03.913Z,6.20
2022-12-27T15:51:49.363Z,6.15
2022-12-27T15:54:38.494Z,6.16
2022-12-27T15:57:43.946Z,6.17
2022-12-27T16:00:22.513Z,6.17
2022-12-27T16:02:53.950Z,6.16
2022-12-27T16:05:23.354Z,6.14
2022-12-27T16:08:00.233Z,6.14
2022-12-27T16:10:33.318Z,6.13
2022-12-27T16:13:08.945Z,6.15
2022-12-27T16:15:35.532Z,6.15
2022-12-27T16:18:03.365Z,6.14
2022-12-27T16:20:32.453Z,6.13
2022-12-27T16:23:06.082Z,6.14
2022-12-27T16:25:38.529Z,6.15
2022-12-27T16:28:24.811Z,6.18
2022-12-27T16:30:56.681Z,6.18
2022-12-27T16:33:26.187Z,6.22
2022-12-27T16:36:12.638Z,6.17
2022-12-27T16:38:48.345Z,6.16
2022-12-27T16:41:28.038Z,6.18
2022-12-27T16:44:15.318Z,6.21
2022-12-27T16:46:57.167Z,6.23
2022-12-27T16:49:43.029Z,6.22
2022-12-27T16:52:52.532Z,6.24
2022-12-27T16:55:31.332Z,6.23
2022-12-27T16:58:28.797Z,6.27
2022-12-27T17:00:59.533Z,6.27
2022-12-27T17:03:36.052Z,6.28
2022-12-27T17:06:36.810Z,6.30
2022-12-27T17:09:10.516Z,6.28
2022-12-27T17:11:59.912Z,6.30
2022-12-27T17:14:31.773Z,6.30
2022-12-27T17:17:14.539Z,6.31
2022-12-27T17:19:57.026Z,6.34
2022-12-27T17:22:30.406Z,6.35
2022-12-27T17:25:02.234Z,6.34
2022-12-27T17:27:48.825Z,6.33
2022-12-27T17:30:45.851Z,6.34
2022-12-27T17:33:21.101Z,6.31
2022-12-27T17:36:17.318Z,6.28
2022-12-27T17:39:08.361Z,6.28
2022-12-27T17:42:13.286Z,6.27
2022-12-27T17:45:06.401Z,6.27
2022-12-27T17:47:52.122Z,6.30
2022-12-27T17:50:24.079Z,6.30
2022-12-27T17:53:27.453Z,6.32
2022-12-27T17:56:31.911Z,6.33
2022-12-27T17:59:09.506Z,6.35
2022-12-27T18:01:43.631Z,6.35
2022-12-27T18:04:18.520Z,6.33
2022-12-27T18:06:48.346Z,6.29
2022-12-27T18:09:30.764Z,6.25
2022-12-27T18:11:57.402Z,6.23
2022-12-27T18:14:23.959Z,6.20
2022-12-27T18:16:51.845Z,6.19
2022-12-27T18:19:19.894Z,6.19
2022-12-27T18:21:55.832Z,6.17
2022-12-27T18:24:33.305Z,6.18
2022-12-27T18:27:05.063Z,6.18
2022-12-27T18:29:32.518Z,6.17
2022-12-27T18:32:11.782Z,6.17
2022-12-27T18:35:02.416Z,6.15
2022-12-27T18:37:30.907Z,6.13
2022-12-27T18:40:00.527Z,6.15
2022-12-27T18:42:32.115Z,6.16
2022-12-27T18:45:04.004Z,6.15
2022-12-27T18:47:35.395Z,6.13
2022-12-27T18:50:06.924Z,6.11
2022-12-27T18:52:43.520Z,6.10
2022-12-27T18:55:17.658Z,6.05
2022-12-27T18:57:44.339Z,6.04
2022-12-27T19:00:27.223Z,6.01
2022-12-27T19:03:12.295Z,6.02
2022-12-27T19:05:39.735Z,6.01
2022-12-27T19:08:20.100Z,5.98
2022-12-27T19:10:51.265Z,5.96
2022-12-27T19:13:27.275Z,5.92
2022-12-27T19:15:55.486Z,5.91
2022-12-27T19:18:34.348Z,5.88
2022-12-27T19:21:03.635Z,5.87
2022-12-27T19:23:34.753Z,5.84
2022-12-27T19:26:16.432Z,5.87
2022-12-27T19:28:46.413Z,5.87
2022-12-27T19:31:17.940Z,5.85
2022-12-27T19:33:46.838Z,5.82
2022-12-27T19:36:14.354Z,5.81
2022-12-27T19:38:47.555Z,5.80
2022-12-27T19:41:17.108Z,5.81
2022-12-27T19:43:46.473Z,5.80
2022-12-27T19:46:14.207Z,5.78
2022-12-27T19:48:41.069Z,5.79
2022-12-27T19:51:19.218Z,5.79
2022-12-27T19:53:57.374Z,5.80
2022-12-27T19:56:24.342Z,5.80
2022-12-27T19:58:51.555Z,5.79
2022-12-27T20:01:20.390Z,5.76
2022-12-27T20:03:46.918Z,5.77
2022-12-27T20:06:22.871Z,5.74
2022-12-27T20:08:55.213Z,5.79
2022-12-27T20:11:22.679Z,5.81
2022-12-27T20:13:49.920Z,5.82
2022-12-27T20:16:18.695Z,5.79
2022-12-27T20:18:45.284Z,5.77
2022-12-27T20:21:16.451Z,5.80
2022-12-27T20:23:43.111Z,5.81
2022-12-27T20:26:11.619Z,5.82
2022-12-27T20:28:38.362Z,5.81
2022-12-27T20:31:10.261Z,5.81
2022-12-27T20:33:36.963Z,5.81
2022-12-27T20:36:06.084Z,5.82
2022-12-27T20:38:32.640Z,5.81
2022-12-27T20:41:10.476Z,5.83
2022-12-27T20:43:39.837Z,5.82
2022-12-27T20:46:13.647Z,5.84
2022-12-27T20:49:00.271Z,5.84
2022-12-27T20:51:31.496Z,5.85
2022-12-27T20:54:00.551Z,5.86
2022-12-27T20:56:28.299Z,5.86
2022-12-27T20:58:54.691Z,5.86
2022-12-27T21:01:24.449Z,5.87
2022-12-27T21:03:51.145Z,5.84
2022-12-27T21:06:20.525Z,5.85
2022-12-27T21:08:54.394Z,5.86
2022-12-27T21:11:31.887Z,5.88
2022-12-27T21:14:00.115Z,5.89
2022-12-27T21:16:29.638Z,5.90
2022-12-27T21:18:57.054Z,5.90
2022-12-27T21:21:29.054Z,5.95
2022-12-27T21:23:57.186Z,5.93
2022-12-27T21:26:32.472Z,5.94
2022-12-27T21:29:00.558Z,5.93
2022-12-27T21:31:28.127Z,5.90
2022-12-27T21:33:54.595Z,5.91
2022-12-27T21:36:26.009Z,5.93
2022-12-27T21:38:53.097Z,5.91
2022-12-27T21:41:31.080Z,5.93
2022-12-27T21:43:57.444Z,5.93
2022-12-27T21:46:27.199Z,5.91
2022-12-27T21:48:56.249Z,5.94
2022-12-27T21:51:22.850Z,5.95
2022-12-27T21:53:49.612Z,5.94
2022-12-27T21:56:16.587Z,5.94
2022-12-27T21:58:44.619Z,5.93
2022-12-27T22:01:23.199Z,5.93
2022-12-27T22:03:51.711Z,5.93
2022-12-27T22:06:21.149Z,5.93
2022-12-27T22:08:50.246Z,5.90
2022-12-27T22:11:18.498Z,5.88
2022-12-27T22:13:45.458Z,5.90
2022-12-27T22:16:14.884Z,5.90
2022-12-27T22:18:42.782Z,5.88
2022-12-27T22:21:10.880Z,5.89
2022-12-27T22:23:40.933Z,5.90
2022-12-27T22:26:18.761Z,5.88
2022-12-27T22:28:45.422Z,5.86
2022-12-27T22:31:18.105Z,5.89
2022-12-27T22:33:44.749Z,5.90
2022-12-27T22:36:14.817Z,5.86
2022-12-27T22:38:41.809Z,5.82
2022-12-27T22:41:17.457Z,5.82
2022-12-27T22:43:49.504Z,5.79
2022-12-27T22:46:15.956Z,5.76
2022-12-27T22:48:42.358Z,5.77
2022-12-27T22:51:13.028Z,5.74
2022-12-27T22:53:39.506Z,5.71
2022-12-27T22:56:35.049Z,5.70
2022-12-27T22:59:08.119Z,5.68
2022-12-27T23:01:35.024Z,5.67
2022-12-27T23:04:04.058Z,5.61
2022-12-27T23:06:32.431Z,5.61
2022-12-27T23:08:58.872Z,5.61
2022-12-27T23:11:27.936Z,5.61
2022-12-27T23:13:57.068Z,5.58
2022-12-27T23:16:26.021Z,5.58
2022-12-27T23:18:53.073Z,5.56
2022-12-27T23:21:24.560Z,5.58
2022-12-27T23:23:52.276Z,5.58
2022-12-27T23:26:21.566Z,5.57
2022-12-27T23:28:49.247Z,5.56
2022-12-27T23:31:16.249Z,5.55
2022-12-27T23:33:43.804Z,5.56
2022-12-27T23:36:13.293Z,5.57
2022-12-27T23:38:41.394Z,5.56
2022-12-27T23:41:08.689Z,5.55
2022-12-27T23:43:52.176Z,5.56
2022-12-27T23:46:22.093Z,5.59
2022-12-27T23:48:57.359Z,5.57
2022-12-27T23:51:24.598Z,5.56
2022-12-27T23:53:52.178Z,5.56
2022-12-27T23:56:27.019Z,5.57
2022-12-27T23:59:07.956Z,5.57
